createdAt,value
2018-11-23T00:02:25.091Z,102255.01
2018-11-23T00:04:54.403Z,102250.08
2018-11-23T00:07:23.742Z,102251.17
2018-11-23T00:09:53.332Z,102252.73
2018-11-23T00:12:22.701Z,102254.91
2018-11-23T00:14:51.983Z,102250.08
2018-11-23T00:17:21.294Z,102251.77
2018-11-23T00:19:50.642Z,102252.91
2018-11-23T00:22:19.928Z,102252.33
2018-11-23T00:24:49.228Z,102258.06
2018-11-23T00:27:18.540Z,102264.63
2018-11-23T00:29:47.831Z,102257.27
2018-11-23T00:32:17.147Z,102257.00
2018-11-23T00:35:06.292Z,102259.16
2018-11-23T00:37:35.631Z,102260.47
2018-11-23T00:40:05.291Z,102257.69
2018-11-23T00:42:34.585Z,102255.53
2018-11-23T00:45:03.979Z,102257.78
2018-11-23T00:47:33.308Z,102260.31
2018-11-23T00:50:02.589Z,102262.26
2018-11-23T00:52:31.940Z,102258.64
2018-11-23T00:55:01.239Z,102256.64
2018-11-23T00:57:30.553Z,102260.73
2018-11-23T00:59:59.833Z,102260.73
2018-11-23T01:02:29.154Z,102258.80
2018-11-23T01:04:58.451Z,102255.53
2018-11-23T01:07:27.747Z,102257.16
2018-11-23T01:09:57.052Z,102249.23
2018-11-23T01:12:26.360Z,102250.59
2018-11-23T01:14:55.657Z,102251.64
2018-11-23T01:17:24.976Z,102250.02
2018-11-23T01:19:54.582Z,102250.08
2018-11-23T01:22:23.893Z,102248.71
2018-11-23T01:24:53.192Z,102246.28
2018-11-23T01:27:22.484Z,102240.52
2018-11-23T01:29:51.795Z,102240.62
2018-11-23T01:35:10.450Z,102237.16
2018-11-23T01:37:39.776Z,102235.75
2018-11-23T01:40:10.995Z,102234.38
2018-11-23T01:42:40.315Z,102233.79
2018-11-23T01:45:10.467Z,102228.81
2018-11-23T01:47:39.785Z,102235.36
2018-11-23T01:50:29.289Z,102222.45
2018-11-23T01:52:58.879Z,102223.49
2018-11-23T01:55:28.399Z,102214.74
2018-11-23T01:57:57.701Z,102221.03
2018-11-23T02:00:28.196Z,102216.67
2018-11-23T02:02:57.838Z,102209.59
2018-11-23T02:05:27.133Z,102207.13
2018-11-23T02:07:56.436Z,102209.63
2018-11-23T02:10:25.798Z,102204.41
2018-11-23T02:12:55.098Z,102200.56
2018-11-23T02:15:24.566Z,102200.30
2018-11-23T02:17:53.877Z,102195.63
2018-11-23T02:20:23.545Z,102195.62
2018-11-23T02:22:52.848Z,102187.42
2018-11-23T02:25:22.206Z,102188.79
2018-11-23T02:27:51.521Z,102186.49
2018-11-23T02:30:22.164Z,102193.58
2018-11-23T02:32:51.454Z,102183.75
2018-11-23T02:35:20.772Z,102192.52
2018-11-23T02:37:50.073Z,102189.59
2018-11-23T02:40:20.288Z,102192.84
2018-11-23T02:42:49.584Z,102196.14
2018-11-23T02:45:37.612Z,102197.77
2018-11-23T02:48:26.622Z,102193.11
2018-11-23T02:50:55.938Z,102193.99
2018-11-23T02:53:25.256Z,102188.53
2018-11-23T02:55:54.590Z,102188.53
2018-11-23T02:58:23.889Z,102191.80
2018-11-23T03:00:53.217Z,102186.80
2018-11-23T03:03:22.606Z,102190.84
2018-11-23T03:05:51.881Z,102185.44
2018-11-23T03:08:21.169Z,102188.70
2018-11-23T03:10:50.476Z,102200.50
2018-11-23T03:13:19.779Z,102190.95
2018-11-23T03:15:49.096Z,102190.96
2018-11-23T03:18:18.403Z,102189.37
2018-11-23T03:20:47.715Z,102183.66
2018-11-23T03:23:17.014Z,102186.37
2018-11-23T03:25:46.340Z,102179.30
2018-11-23T03:28:15.662Z,102173.05
2018-11-23T03:30:44.995Z,102165.37
2018-11-23T03:33:14.323Z,102175.25
2018-11-23T03:35:43.636Z,102168.70
2018-11-23T03:38:12.940Z,102168.13
2018-11-23T03:41:02.108Z,102165.65
2018-11-23T03:43:31.418Z,102171.11
2018-11-23T03:46:00.732Z,102171.89
2018-11-23T03:48:30.037Z,102173.78
2018-11-23T03:50:59.353Z,102168.06
2018-11-23T03:53:28.648Z,102165.37
2018-11-23T03:55:57.947Z,102164.33
2018-11-23T03:58:27.268Z,102160.55
2018-11-23T04:00:56.584Z,102161.12
2018-11-23T04:03:25.891Z,102160.55
2018-11-23T04:05:55.226Z,102161.39
2018-11-23T04:08:24.521Z,102159.14
2018-11-23T04:10:53.837Z,102158.82
2018-11-23T04:13:23.144Z,102157.19
2018-11-23T04:15:52.455Z,102156.03
2018-11-23T04:18:21.761Z,102158.19
2018-11-23T04:21:01.266Z,102153.83
2018-11-23T04:23:50.420Z,102156.56
2018-11-23T04:26:24.602Z,102154.09
2018-11-23T04:28:49.965Z,102154.63
2018-11-23T04:31:19.261Z,102148.86
2018-11-23T04:33:48.561Z,102148.07
2018-11-23T04:36:17.887Z,102146.44
2018-11-23T04:38:47.175Z,102150.01
2018-11-23T04:41:16.479Z,102145.92
2018-11-23T04:43:45.774Z,102149.48
2018-11-23T04:46:15.070Z,102142.34
2018-11-23T04:48:44.351Z,102148.05
2018-11-23T04:51:13.668Z,102152.15
2018-11-23T04:53:42.957Z,102147.27
2018-11-23T04:56:12.243Z,102145.38
2018-11-23T04:58:41.566Z,102153.36
2018-11-23T05:01:10.907Z,102147.11
2018-11-23T05:03:40.194Z,102147.42
2018-11-23T05:06:09.512Z,102147.91
2018-11-23T05:08:38.828Z,102153.88
2018-11-23T05:11:08.111Z,102155.47
2018-11-23T05:13:37.406Z,102154.09
2018-11-23T05:16:06.760Z,102154.36
2018-11-23T05:18:36.062Z,102149.11
2018-11-23T05:21:05.364Z,102153.25
2018-11-23T05:23:34.659Z,102158.78
2018-11-23T05:26:03.964Z,102153.88
2018-11-23T05:28:33.250Z,102153.88
2018-11-23T05:31:02.569Z,102150.80
2018-11-23T05:33:31.893Z,102157.30
2018-11-23T05:36:01.231Z,102150.20
2018-11-23T05:38:30.530Z,102146.34
2018-11-23T05:40:59.918Z,102153.14
2018-11-23T05:43:29.211Z,102149.84
2018-11-23T05:45:58.492Z,102144.17
2018-11-23T05:48:27.809Z,102141.71
2018-11-23T05:50:57.195Z,102136.56
2018-11-23T05:53:26.490Z,102144.23
2018-11-23T05:55:55.774Z,102140.23
2018-11-23T05:58:25.123Z,102144.55
2018-11-23T06:00:54.411Z,102143.75
2018-11-23T06:03:23.749Z,102135.83
2018-11-23T06:05:53.052Z,102136.94
2018-11-23T06:08:22.366Z,102130.95
2018-11-23T06:10:51.660Z,102130.69
2018-11-23T06:13:20.964Z,102136.72
2018-11-23T06:15:50.291Z,102125.31
2018-11-23T06:18:19.599Z,102125.31
2018-11-23T06:20:48.902Z,102120.17
2018-11-23T06:23:18.205Z,102121.58
2018-11-23T06:25:50.993Z,102125.14
2018-11-23T06:28:20.237Z,102125.14
2018-11-23T06:30:49.526Z,102120.48
2018-11-23T06:33:39.373Z,102128.36
2018-11-23T06:36:08.677Z,102128.05
2018-11-23T06:38:37.973Z,102129.11
2018-11-23T06:41:10.442Z,102130.20
2018-11-23T06:43:38.341Z,102132.93
2018-11-23T06:46:09.105Z,102130.69
2018-11-23T06:48:38.416Z,102135.00
2018-11-23T06:51:08.235Z,102137.14
2018-11-23T06:53:37.519Z,102132.67
2018-11-23T06:56:07.131Z,102134.27
2018-11-23T06:58:36.449Z,102137.36
2018-11-23T07:01:05.840Z,102138.45
2018-11-23T07:03:35.134Z,102133.78
2018-11-23T07:06:04.432Z,102138.20
2018-11-23T07:08:33.726Z,102139.08
2018-11-23T07:11:04.053Z,102140.97
2018-11-23T07:13:33.860Z,102139.86
2018-11-23T07:16:03.135Z,102141.23
2018-11-23T07:18:32.500Z,102140.03
2018-11-23T07:21:01.779Z,102137.78
2018-11-23T07:23:31.100Z,102143.29
2018-11-23T07:26:00.433Z,102140.03
2018-11-23T07:28:29.727Z,102136.52
2018-11-23T07:33:34.659Z,102139.29
2018-11-23T07:36:03.957Z,102139.86
2018-11-23T07:38:33.248Z,102143.70
2018-11-23T07:41:40.713Z,102139.08
2018-11-23T07:44:10.020Z,102144.33
2018-11-23T07:46:39.323Z,102141.76
2018-11-23T07:49:08.599Z,102150.43
2018-11-23T07:51:39.219Z,102143.29
2018-11-23T07:54:08.154Z,102145.48
2018-11-23T07:56:38.215Z,102151.80
2018-11-23T07:59:07.678Z,102148.84
2018-11-23T08:01:36.983Z,102143.96
2018-11-23T08:04:06.284Z,102144.77
2018-11-23T08:06:35.576Z,102138.23
2018-11-23T08:09:24.864Z,102143.13
2018-11-23T08:11:54.401Z,102138.72
2018-11-23T08:14:23.889Z,102145.28
2018-11-23T08:16:53.718Z,102141.44
2018-11-23T08:19:23.002Z,102139.77
2018-11-23T08:22:12.176Z,102144.44
2018-11-23T08:24:41.489Z,102141.71
2018-11-23T08:27:11.000Z,102137.88
2018-11-23T08:29:40.290Z,102143.86
2018-11-23T08:32:09.598Z,102142.24
2018-11-23T08:34:38.897Z,102139.86
2018-11-23T08:37:08.212Z,102144.02
2018-11-23T08:39:37.499Z,102147.07
2018-11-23T08:42:06.810Z,102141.17
2018-11-23T08:44:36.097Z,102140.39
2018-11-23T08:47:05.422Z,102144.53
2018-11-23T08:49:34.718Z,102139.59
2018-11-23T08:52:04.011Z,102139.80
2018-11-23T08:54:33.304Z,102136.81
2018-11-23T08:57:02.615Z,102137.39
2018-11-23T08:59:31.889Z,102136.06
2018-11-23T09:02:01.199Z,102140.39
2018-11-23T09:04:30.506Z,102138.66
2018-11-23T09:06:59.828Z,102133.72
2018-11-23T09:09:29.130Z,102130.73
2018-11-23T09:11:58.662Z,102130.78
2018-11-23T09:14:27.947Z,102130.25
2018-11-23T09:16:57.279Z,102122.05
2018-11-23T09:19:26.560Z,102119.11
2018-11-23T09:21:55.870Z,102115.59
2018-11-23T09:24:25.246Z,102115.11
2018-11-23T09:26:54.565Z,102111.33
2018-11-23T09:29:23.902Z,102113.62
2018-11-23T09:31:53.194Z,102109.84
2018-11-23T09:34:22.522Z,102107.37
2018-11-23T09:36:51.821Z,102103.48
2018-11-23T09:39:21.211Z,102109.53
2018-11-23T09:41:50.501Z,102105.17
2018-11-23T09:44:19.841Z,102105.47
2018-11-23T09:46:49.075Z,102103.88
2018-11-23T09:49:18.407Z,102102.25
2018-11-23T09:51:47.702Z,102103.92
2018-11-23T09:54:17.002Z,102098.69
2018-11-23T09:56:46.305Z,102098.37
2018-11-23T09:59:15.608Z,102098.69
2018-11-23T10:01:44.892Z,102096.44
2018-11-23T10:04:14.211Z,102092.13
2018-11-23T10:06:43.511Z,102084.77
2018-11-23T10:09:12.827Z,102080.36
2018-11-23T10:11:42.117Z,102070.27
2018-11-23T10:14:11.563Z,102074.67
2018-11-23T10:16:40.884Z,102081.55
2018-11-23T10:19:31.378Z,102083.30
2018-11-23T10:22:00.670Z,102076.77
2018-11-23T10:24:29.994Z,102076.77
2018-11-23T10:26:59.295Z,102077.08
2018-11-23T10:29:28.604Z,102079.55
2018-11-23T10:31:57.927Z,102075.41
2018-11-23T10:34:27.240Z,102072.41
2018-11-23T10:36:56.601Z,102070.73
2018-11-23T10:39:26.056Z,102069.11
2018-11-23T10:41:55.352Z,102066.41
2018-11-23T10:44:24.644Z,102063.15
2018-11-23T10:46:53.931Z,102062.95
2018-11-23T10:49:23.242Z,102050.92
2018-11-23T10:51:52.585Z,102048.19
2018-11-23T10:54:21.940Z,102046.56
2018-11-23T10:56:51.287Z,102045.16
2018-11-23T10:59:20.604Z,102047.66
2018-11-23T11:02:08.620Z,102034.83
2018-11-23T11:04:56.676Z,102032.13
2018-11-23T11:07:29.432Z,102035.09
2018-11-23T11:09:58.720Z,102029.67
2018-11-23T11:12:28.109Z,102031.91
2018-11-23T11:14:57.390Z,102023.44
2018-11-23T11:17:26.689Z,102028.38
2018-11-23T11:19:56.019Z,102022.87
2018-11-23T11:22:25.367Z,102025.30
2018-11-23T11:25:02.851Z,102021.20
2018-11-23T11:27:32.163Z,102022.87
2018-11-23T11:30:01.452Z,102014.97
2018-11-23T11:32:30.791Z,102010.10
2018-11-23T11:35:00.079Z,102011.73
2018-11-23T11:37:29.368Z,102006.83
2018-11-23T11:39:58.664Z,102010.34
2018-11-23T11:42:27.953Z,102000.70
2018-11-23T11:44:57.229Z,102000.70
2018-11-23T11:47:26.533Z,102004.00
2018-11-23T11:49:59.153Z,101996.97
2018-11-23T11:52:26.008Z,101990.46
2018-11-23T11:54:55.315Z,101987.49
2018-11-23T11:57:24.618Z,101983.69
2018-11-23T11:59:53.892Z,101983.42
2018-11-23T12:02:23.590Z,101982.09
2018-11-23T12:04:52.886Z,101980.45
2018-11-23T12:07:22.224Z,101983.98
2018-11-23T12:09:51.502Z,101983.13
2018-11-23T12:12:20.804Z,101981.25
2018-11-23T12:14:50.083Z,101980.48
2018-11-23T12:17:19.459Z,101979.11
2018-11-23T12:19:48.761Z,101974.20
2018-11-23T12:22:18.076Z,101972.57
2018-11-23T12:24:47.371Z,101965.73
2018-11-23T12:27:16.646Z,101965.73
2018-11-23T12:29:45.963Z,101966.83
2018-11-23T12:32:15.238Z,101957.85
2018-11-23T12:34:44.512Z,101963.34
2018-11-23T12:37:13.807Z,101961.76
2018-11-23T12:39:43.133Z,101956.31
2018-11-23T12:42:12.444Z,101950.28
2018-11-23T12:44:41.969Z,101949.42
2018-11-23T12:47:11.275Z,101947.77
2018-11-23T12:49:40.577Z,101936.55
2018-11-23T12:52:09.884Z,101937.09
2018-11-23T12:54:39.180Z,101935.99
2018-11-23T12:57:28.081Z,101944.77
2018-11-23T12:59:57.389Z,101939.53
2018-11-23T13:02:26.669Z,101945.27
2018-11-23T13:04:55.971Z,101939.52
2018-11-23T13:07:25.255Z,101940.61
2018-11-23T13:09:54.633Z,101938.70
2018-11-23T13:12:23.931Z,101936.24
2018-11-23T13:14:53.260Z,101941.44
2018-11-23T13:17:22.628Z,101928.86
2018-11-23T13:19:51.935Z,101923.69
2018-11-23T13:22:21.273Z,101932.75
2018-11-23T13:24:50.571Z,101928.37
2018-11-23T13:27:19.870Z,101918.27
2018-11-23T13:29:49.294Z,101922.64
2018-11-23T13:32:18.821Z,101915.23
2018-11-23T13:34:48.110Z,101915.23
2018-11-23T13:37:17.418Z,101919.34
2018-11-23T13:39:46.727Z,101922.62
2018-11-23T13:42:16.035Z,101916.09
2018-11-23T13:44:45.314Z,101912.56
2018-11-23T13:47:14.595Z,101911.52
2018-11-23T13:49:43.880Z,101913.44
2018-11-23T13:52:13.227Z,101908.00
2018-11-23T13:57:31.809Z,101913.73
2018-11-23T14:00:01.100Z,101908.50
2018-11-23T14:02:30.495Z,101907.14
2018-11-23T14:04:59.803Z,101904.96
2018-11-23T14:07:29.128Z,101910.99
2018-11-23T14:09:58.441Z,101906.08
2018-11-23T14:12:27.756Z,101910.45
2018-11-23T14:14:58.055Z,101912.31
2018-11-23T14:17:27.261Z,101912.31
2018-11-23T14:19:56.654Z,101904.16
2018-11-23T14:24:53.953Z,101895.16
2018-11-23T14:27:23.382Z,101897.88
2018-11-23T14:29:52.718Z,101894.08
2018-11-23T14:32:22.060Z,101894.61
2018-11-23T14:34:51.365Z,101890.78
2018-11-23T14:37:20.732Z,101887.21
2018-11-23T14:39:50.064Z,101883.11
2018-11-23T14:42:19.384Z,101885.58
2018-11-23T14:44:48.686Z,101889.95
2018-11-23T14:47:18.096Z,101889.39
2018-11-23T14:49:47.416Z,101886.63
2018-11-23T14:52:16.763Z,101883.08
2018-11-23T14:54:46.070Z,101886.08
2018-11-23T14:57:15.488Z,101879.22
2018-11-23T14:59:44.820Z,101881.95
2018-11-23T15:02:33.998Z,101879.76
2018-11-23T15:05:03.319Z,101874.02
2018-11-23T15:07:32.643Z,101879.20
2018-11-23T15:10:01.958Z,101883.05
2018-11-23T15:12:31.240Z,101877.86
2018-11-23T15:15:00.579Z,101883.33
2018-11-23T15:17:50.584Z,101878.69
2018-11-23T15:20:24.389Z,101875.94
2018-11-23T15:22:55.634Z,101874.59
2018-11-23T15:25:44.512Z,101867.75
2018-11-23T15:28:14.412Z,101860.11
2018-11-23T15:30:44.493Z,101863.11
2018-11-23T15:33:15.400Z,101864.48
2018-11-23T15:35:45.332Z,101857.66
2018-11-23T15:38:16.521Z,101855.48
2018-11-23T15:40:45.802Z,101850.27
2018-11-23T15:43:34.092Z,101849.41
2018-11-23T15:46:03.380Z,101845.60
2018-11-23T15:48:32.671Z,101850.55
2018-11-23T15:51:20.678Z,101858.77
2018-11-23T15:53:49.977Z,101852.20
2018-11-23T15:56:19.262Z,101859.30
2018-11-23T15:58:48.579Z,101860.94
2018-11-23T16:01:17.873Z,101858.45
2018-11-23T16:04:07.040Z,101856.53
2018-11-23T16:06:36.395Z,101863.11
2018-11-23T16:09:25.665Z,101863.13
2018-11-23T16:11:54.961Z,101860.37
2018-11-23T16:14:24.271Z,101858.71
2018-11-23T16:16:53.549Z,101855.98
2018-11-23T16:19:22.854Z,101855.73
2018-11-23T16:21:52.152Z,101859.84
2018-11-23T16:24:21.497Z,101859.27
2018-11-23T16:26:50.811Z,101854.91
2018-11-23T16:29:20.132Z,101856.79
2018-11-23T16:31:49.408Z,101853.23
2018-11-23T16:34:18.716Z,101843.94
2018-11-23T16:36:48.015Z,101842.00
2018-11-23T16:39:17.333Z,101837.89
2018-11-23T16:41:46.608Z,101835.69
2018-11-23T16:44:15.927Z,101842.80
2018-11-23T16:46:45.227Z,101834.86
2018-11-23T16:49:14.563Z,101837.35
2018-11-23T16:51:43.816Z,101834.34
2018-11-23T16:54:13.116Z,101833.50
2018-11-23T16:56:45.529Z,101830.20
2018-11-23T16:59:15.300Z,101832.92
2018-11-23T17:01:44.583Z,101830.14
2018-11-23T17:04:13.919Z,101838.36
2018-11-23T17:06:43.201Z,101848.47
2018-11-23T17:09:12.497Z,101845.45
2018-11-23T17:11:41.807Z,101842.47
2018-11-23T17:14:11.119Z,101844.94
2018-11-23T17:16:59.994Z,101850.70
2018-11-23T17:19:49.164Z,101837.28
2018-11-23T17:22:18.449Z,101833.75
2018-11-23T17:24:47.771Z,101828.55
2018-11-23T17:27:17.074Z,101831.00
2018-11-23T17:29:46.384Z,101828.03
2018-11-23T17:32:15.695Z,101828.56
2018-11-23T17:34:45.018Z,101829.13
2018-11-23T17:37:14.387Z,101826.92
2018-11-23T17:40:03.685Z,101822.30
2018-11-23T17:42:32.992Z,101818.72
2018-11-23T17:45:02.845Z,101819.82
2018-11-23T17:47:32.342Z,101818.70
2018-11-23T17:50:01.629Z,101813.77
2018-11-23T17:52:31.492Z,101811.58
2018-11-23T17:55:00.789Z,101808.57
2018-11-23T17:57:30.101Z,101808.88
2018-11-23T17:59:59.439Z,101811.90
2018-11-23T18:02:30.019Z,101807.81
2018-11-23T18:04:59.302Z,101802.07
2018-11-23T18:07:28.593Z,101799.05
2018-11-23T18:09:57.892Z,101796.31
2018-11-23T18:12:27.203Z,101799.30
2018-11-23T18:14:56.488Z,101797.39
2018-11-23T18:17:25.875Z,101796.88
2018-11-23T18:20:00.149Z,101799.89
2018-11-23T18:25:08.376Z,101802.65
2018-11-23T18:27:39.038Z,101789.77
2018-11-23T18:30:10.708Z,101795.53
2018-11-23T18:32:59.711Z,101797.45
2018-11-23T18:35:29.992Z,101794.42
2018-11-23T18:38:00.290Z,101796.10
2018-11-23T18:43:06.259Z,101806.23
2018-11-23T18:45:59.509Z,101801.02
2018-11-23T18:48:08.604Z,101802.96
2018-11-23T18:50:38.641Z,101802.41
2018-11-23T18:53:09.576Z,101799.41
2018-11-23T18:55:39.951Z,101804.62
2018-11-23T18:58:10.239Z,101798.37
2018-11-23T19:00:40.546Z,101798.66
2018-11-23T19:03:10.920Z,101797.56
2018-11-23T19:05:41.056Z,101791.83
2018-11-23T19:08:13.898Z,101789.37
2018-11-23T19:10:44.200Z,101791.27
2018-11-23T19:13:14.745Z,101784.45
2018-11-23T19:16:03.887Z,101782.81
2018-11-23T19:18:33.203Z,101783.63
2018-11-23T19:21:02.485Z,101778.72
2018-11-23T19:23:31.808Z,101770.48
2018-11-23T19:26:01.131Z,101769.11
2018-11-23T19:28:30.437Z,101767.77
2018-11-23T19:30:59.729Z,101761.19
2018-11-23T19:33:29.044Z,101766.11
2018-11-23T19:35:58.353Z,101762.01
2018-11-23T19:38:27.677Z,101758.70
2018-11-23T19:40:56.979Z,101752.98
2018-11-23T19:43:26.277Z,101749.97
2018-11-23T19:45:55.577Z,101748.33
2018-11-23T19:48:24.893Z,101748.59
2018-11-23T19:50:54.255Z,101745.84
2018-11-23T19:53:23.555Z,101739.00
2018-11-23T19:55:52.898Z,101729.42
2018-11-23T19:58:22.195Z,101722.84
2018-11-23T20:00:51.565Z,101716.55
2018-11-23T20:03:20.920Z,101713.27
2018-11-23T20:05:50.229Z,101715.73
2018-11-23T20:08:19.554Z,101706.15
2018-11-23T20:11:08.730Z,101710.23
2018-11-23T20:13:50.596Z,101704.22
2018-11-23T20:16:19.911Z,101703.67
2018-11-23T20:18:49.212Z,101697.38
2018-11-23T20:21:18.513Z,101701.73
2018-11-23T20:23:47.820Z,101700.91
2018-11-23T20:26:17.222Z,101695.44
2018-11-23T20:28:46.544Z,101690.78
2018-11-23T20:31:15.874Z,101686.39
2018-11-23T20:33:45.198Z,101686.67
2018-11-23T20:36:14.508Z,101694.07
2018-11-23T20:38:43.872Z,101691.59
2018-11-23T20:41:13.237Z,101689.39
2018-11-23T20:43:42.572Z,101681.17
2018-11-23T20:46:11.880Z,101682.28
2018-11-23T20:48:41.147Z,101688.05
2018-11-23T20:51:10.476Z,101684.48
2018-11-23T20:53:39.747Z,101675.98
2018-11-23T20:56:09.046Z,101677.34
2018-11-23T20:58:38.346Z,101675.98
2018-11-23T21:01:07.712Z,101669.41
2018-11-23T21:03:37.036Z,101673.52
2018-11-23T21:06:06.408Z,101674.89
2018-11-23T21:08:35.719Z,101679.30
2018-11-23T21:11:05.032Z,101672.16
2018-11-23T21:13:34.349Z,101664.48
2018-11-23T21:16:23.526Z,101674.33
2018-11-23T21:18:52.841Z,101669.13
2018-11-23T21:21:22.175Z,101663.94
2018-11-23T21:23:51.522Z,101677.06
2018-11-23T21:26:20.824Z,101673.23
2018-11-23T21:28:50.120Z,101669.67
2018-11-23T21:31:19.440Z,101669.95
2018-11-23T21:33:48.792Z,101675.72
2018-11-23T21:36:18.109Z,101664.48
2018-11-23T21:38:47.402Z,101659.53
2018-11-23T21:41:16.726Z,101657.05
2018-11-23T21:43:46.000Z,101664.19
2018-11-23T21:46:15.334Z,101661.16
2018-11-23T21:48:44.606Z,101656.80
2018-11-23T21:51:14.006Z,101662.28
2018-11-23T21:53:43.348Z,101658.45
2018-11-23T21:56:12.663Z,101655.45
2018-11-23T21:58:41.989Z,101651.03
2018-11-23T22:01:11.426Z,101649.66
2018-11-23T22:03:40.821Z,101647.45
2018-11-23T22:06:30.009Z,101644.50
2018-11-23T22:08:59.356Z,101648.86
2018-11-23T22:11:28.707Z,101643.92
2018-11-23T22:13:58.034Z,101645.30
2018-11-23T22:16:27.364Z,101643.92
2018-11-23T22:18:56.730Z,101646.38
2018-11-23T22:21:26.072Z,101638.47
2018-11-23T22:24:01.423Z,101643.95
2018-11-23T22:26:25.939Z,101638.72
2018-11-23T22:28:55.244Z,101634.64
2018-11-23T22:31:24.559Z,101632.98
2018-11-23T22:33:53.877Z,101629.16
2018-11-23T22:36:23.209Z,101625.88
2018-11-23T22:38:52.536Z,101620.94
2018-11-23T22:41:21.886Z,101624.22
2018-11-23T22:43:51.213Z,101623.14
2018-11-23T22:46:20.542Z,101612.44
2018-11-23T22:48:49.886Z,101616.26
2018-11-23T22:51:19.225Z,101621.45
2018-11-23T22:53:48.541Z,101615.44
2018-11-23T22:56:37.743Z,101614.32
2018-11-23T22:59:07.183Z,101615.69
2018-11-23T23:01:56.394Z,101615.14
2018-11-23T23:04:25.723Z,101616.52
2018-11-23T23:06:55.056Z,101611.33
2018-11-23T23:09:24.415Z,101611.86
2018-11-23T23:11:53.751Z,101609.13
2018-11-23T23:14:23.058Z,101611.33
2018-11-23T23:16:52.403Z,101599.82
2018-11-23T23:19:21.735Z,101605.84
2018-11-23T23:21:51.064Z,101598.42
2018-11-23T23:24:20.415Z,101598.13
2018-11-23T23:26:49.763Z,101598.70
2018-11-23T23:29:19.080Z,101598.70
2018-11-23T23:31:48.411Z,101606.09
2018-11-23T23:34:17.743Z,101603.64
2018-11-23T23:36:47.072Z,101607.76
2018-11-23T23:39:16.374Z,101598.99
2018-11-23T23:41:45.721Z,101588.86
2018-11-23T23:44:15.057Z,101580.93
2018-11-23T23:46:44.403Z,101574.94
2018-11-23T23:49:13.727Z,101580.16
2018-11-23T23:51:43.058Z,101580.70
2018-11-23T23:54:12.378Z,101583.16
2018-11-23T23:56:41.700Z,101577.14
2018-11-23T23:59:11.016Z,101568.95
